Time;durP1;ratioP1;P1;durP2;ratioP2;P2;SDS_P1;SDS_P2;PMS_P1;PMS_P2;Temp;Humidity;BMP_temperature;BMP_pressure;BME280_temperature;BME280_humidity;BME280_pressure;Samples;Min_cycle;Max_cycle;Signal;HPM_P1;HPM_P2
2021/11/25 00:02:42;;;;;;;55.43;28.92;;;;;;;1.07;70.21;100419.42;2163571;81;27693;-56
2021/11/25 00:05:45;;;;;;;51.98;25.70;;;;;;;1.06;70.33;100414.58;2177541;81;29075;-57
2021/11/25 00:08:47;;;;;;;49.50;25.65;;;;;;;1.04;70.45;100410.21;2141440;81;31002;-54
2021/11/25 00:11:48;;;;;;;47.62;26.85;;;;;;;1.03;70.73;100409.31;2104554;84;33511;-61
2021/11/25 00:14:50;;;;;;;41.90;23.95;;;;;;;1.01;70.70;100402.31;2104584;83;30752;-65
2021/11/25 00:17:53;;;;;;;46.37;24.27;;;;;;;0.99;70.79;100392.22;2092394;82;27816;-63
2021/11/25 00:20:55;;;;;;;45.55;23.98;;;;;;;0.98;70.69;100394.00;2023130;88;29300;-64
2021/11/25 00:23:56;;;;;;;46.63;23.60;;;;;;;0.96;70.83;100389.17;2055598;86;31258;-63
2021/11/25 00:26:58;;;;;;;46.35;24.82;;;;;;;0.94;70.99;100385.67;2107582;82;33156;-63
2021/11/25 00:30:00;;;;;;;47.27;25.12;;;;;;;0.91;70.92;100385.23;2114973;82;29756;-64
2021/11/25 00:33:02;;;;;;;40.83;23.55;;;;;;;0.89;70.91;100374.28;2114685;84;27716;-63
2021/11/25 00:36:04;;;;;;;48.55;25.27;;;;;;;0.85;70.92;100381.77;2114727;84;28684;-61
2021/11/25 00:39:07;;;;;;;43.92;25.70;;;;;;;0.82;71.03;100381.37;2090240;82;31576;-63
2021/11/25 00:42:09;;;;;;;54.80;29.40;;;;;;;0.77;71.09;100372.61;2088427;82;33774;-64
2021/11/25 00:45:12;;;;;;;54.20;28.07;;;;;;;0.73;71.31;100374.86;2103312;83;29514;-61
2021/11/25 00:48:14;;;;;;;52.75;27.27;;;;;;;0.70;71.25;100364.34;2081496;84;27691;-64
2021/11/25 00:51:16;;;;;;;53.78;27.30;;;;;;;0.66;71.48;100359.97;2097414;83;28479;-64
2021/11/25 00:54:18;;;;;;;53.85;28.87;;;;;;;0.62;71.86;100356.91;2099832;83;31958;-63
2021/11/25 00:57:20;;;;;;;58.05;29.40;;;;;;;0.57;72.08;100354.32;2132646;83;34129;-64
2021/11/25 01:00:23;;;;;;;50.20;28.02;;;;;;;0.54;72.08;100349.06;2132270;83;30696;-64
2021/11/25 01:03:25;;;;;;;51.98;29.77;;;;;;;0.52;72.27;100348.20;2089006;83;27717;-63
2021/11/25 01:06:27;;;;;;;54.77;28.90;;;;;;;0.49;72.38;100341.66;2080016;84;28795;-63
2021/11/25 01:09:28;;;;;;;56.10;29.37;;;;;;;0.48;72.69;100342.55;2100877;83;31124;-64
2021/11/25 01:12:32;;;;;;;55.63;31.12;;;;;;;0.45;73.01;100336.41;2112562;83;33600;-64
2021/11/25 01:15:35;;;;;;;62.78;33.78;;;;;;;0.45;72.95;100330.24;2068280;83;30110;-65
2021/11/25 01:18:37;;;;;;;62.40;32.70;;;;;;;0.44;73.23;100323.22;2072637;84;27892;-63
2021/11/25 01:21:39;;;;;;;57.17;30.00;;;;;;;0.45;73.20;100329.81;2070424;84;29513;-63
2021/11/25 01:24:41;;;;;;;61.30;31.82;;;;;;;0.44;73.66;100318.84;2090937;84;31057;-54
2021/11/25 01:27:43;;;;;;;64.12;34.13;;;;;;;0.44;73.53;100317.52;2068944;83;33816;-63
2021/11/25 01:30:50;;;;;;;68.33;33.80;;;;;;;0.44;73.62;100315.31;2110366;83;30185;-60
2021/11/25 01:33:51;;;;;;;60.33;33.40;;;;;;;0.44;73.85;100308.30;2096346;84;28506;-60
2021/11/25 01:36:53;;;;;;;59.48;30.95;;;;;;;0.45;74.10;100306.09;2090718;84;28645;-62
2021/11/25 01:39:57;;;;;;;65.70;34.98;;;;;;;0.46;74.48;100304.32;2062087;84;32289;-54
2021/11/25 01:42:58;;;;;;;57.13;31.90;;;;;;;0.44;74.11;100300.39;2061934;86;33830;-60
2021/11/25 01:46:05;;;;;;;58.90;32.20;;;;;;;0.44;74.24;100296.44;2074816;84;29708;-57
2021/11/25 01:49:08;;;;;;;54.93;31.25;;;;;;;0.43;74.37;100284.15;2094224;83;27706;-50
2021/11/25 01:52:10;;;;;;;59.03;32.23;;;;;;;0.43;74.44;100281.94;2079020;83;28487;-57
2021/11/25 01:55:14;;;;;;;57.38;32.35;;;;;;;0.41;74.33;100275.83;2085873;83;32083;-59
2021/11/25 01:58:16;;;;;;;59.90;30.97;;;;;;;0.38;74.33;100273.22;2132922;83;32966;-60
2021/11/25 02:01:21;;;;;;;57.75;31.23;;;;;;;0.36;74.38;100267.94;2118013;83;30211;-58
2021/11/25 02:04:26;;;;;;;54.48;29.05;;;;;;;0.35;74.30;100267.51;2092896;84;27634;-53
2021/11/25 02:07:27;;;;;;;52.45;29.23;;;;;;;0.32;74.29;100264.92;2062535;86;28860;-56
2021/11/25 02:10:29;;;;;;;53.17;30.30;;;;;;;0.27;74.38;100268.03;2093354;83;32173;-54
2021/11/25 02:13:31;;;;;;;52.98;30.25;;;;;;;0.24;74.32;100250.92;2081691;83;33339;-58
2021/11/25 02:16:35;;;;;;;53.50;28.80;;;;;;;0.21;74.45;100255.78;2084350;85;30441;-57
2021/11/25 02:19:37;;;;;;;59.23;31.35;;;;;;;0.18;74.30;100246.58;2068982;85;27639;-62
2021/11/25 02:22:41;;;;;;;62.05;31.93;;;;;;;0.16;74.29;100238.27;2071708;83;29902;-62
2021/11/25 02:25:44;;;;;;;63.98;32.23;;;;;;;0.10;74.30;100237.42;2097414;84;31902;-63
2021/11/25 02:28:46;;;;;;;65.78;33.18;;;;;;;0.03;74.56;100227.80;2068454;84;33145;-61
2021/11/25 02:31:49;;;;;;;58.48;32.20;;;;;;;-0.01;74.54;100223.47;2124525;83;30705;-60
2021/11/25 02:34:51;;;;;;;59.05;31.87;;;;;;;-0.08;74.65;100221.75;2124449;83;27777;-57
2021/11/25 02:37:54;;;;;;;60.60;32.50;;;;;;;-0.13;74.76;100220.48;2132273;83;29738;-62
2021/11/25 02:40:58;;;;;;;61.60;32.80;;;;;;;-0.16;74.76;100216.55;2133373;83;31195;-62
2021/11/25 02:44:00;;;;;;;59.18;32.80;;;;;;;-0.20;74.75;100213.49;2124953;83;33198;-61
2021/11/25 02:47:02;;;;;;;60.92;34.20;;;;;;;-0.23;74.89;100205.19;2127962;83;29339;-61
2021/11/25 02:50:06;;;;;;;61.23;33.13;;;;;;;-0.28;74.88;100195.58;2125099;83;27603;-62
2021/11/25 02:53:09;;;;;;;64.37;34.60;;;;;;;-0.31;74.78;100197.34;2085024;83;29543;-60
2021/11/25 02:56:15;;;;;;;60.58;33.30;;;;;;;-0.32;74.81;100188.12;2039079;85;32046;-62
2021/11/25 02:59:18;;;;;;;69.77;35.85;;;;;;;-0.36;74.72;100174.11;2061592;85;32958;-61
2021/11/25 03:02:19;;;;;;;63.10;35.88;;;;;;;-0.41;74.91;100173.27;2073397;83;30473;-60
2021/11/25 03:05:21;;;;;;;65.40;36.10;;;;;;;-0.44;74.99;100177.26;2109145;83;27684;-59
2021/11/25 03:08:23;;;;;;;66.75;35.65;;;;;;;-0.49;74.93;100168.05;2119611;83;29003;-58
2021/11/25 03:11:28;;;;;;;64.25;35.40;;;;;;;-0.51;75.07;100170.27;2040982;85;31909;-62
2021/11/25 03:14:30;;;;;;;61.08;34.38;;;;;;;-0.53;75.02;100167.66;2070055;85;33675;-58
2021/11/25 03:17:32;;;;;;;68.20;36.77;;;;;;;-0.55;75.09;100159.33;2050763;84;30023;-53
2021/11/25 03:20:35;;;;;;;61.42;34.03;;;;;;;-0.60;75.02;100161.99;2131636;83;27917;-57
2021/11/25 03:23:38;;;;;;;71.95;36.60;;;;;;;-0.62;75.08;100151.91;2144083;82;28678;-54
2021/11/25 03:26:40;;;;;;;64.32;35.03;;;;;;;-0.67;75.06;100148.46;2143588;83;30855;-54
2021/11/25 03:29:43;;;;;;;68.57;37.05;;;;;;;-0.72;75.21;100139.26;2133235;82;33990;-53
2021/11/25 03:32:45;;;;;;;62.85;34.92;;;;;;;-0.74;75.13;100137.07;2135896;83;30791;-53
2021/11/25 03:35:46;;;;;;;67.42;34.65;;;;;;;-0.76;75.18;100134.92;2107456;84;27721;-49
2021/11/25 03:38:49;;;;;;;64.77;36.08;;;;;;;-0.77;75.23;100133.17;2072706;85;29391;-54
2021/11/25 03:41:51;;;;;;;63.58;37.48;;;;;;;-0.79;75.14;100117.38;2119068;83;31798;-49
2021/11/25 03:44:53;;;;;;;67.90;35.85;;;;;;;-0.82;75.36;100106.88;2136123;82;33761;-49
2021/11/25 03:47:56;;;;;;;65.47;37.23;;;;;;;-0.84;75.32;100107.35;2097692;83;30598;-50
2021/11/25 03:51:01;;;;;;;64.07;35.98;;;;;;;-0.86;75.35;100102.54;2130559;83;27887;-49
2021/11/25 03:54:05;;;;;;;64.42;35.03;;;;;;;-0.86;75.49;100098.59;2137675;82;29851;-51
2021/11/25 03:57:11;;;;;;;67.95;38.10;;;;;;;-0.93;75.51;100087.24;2125131;83;30927;-60
2021/11/25 04:00:17;;;;;;;75.15;37.80;;;;;;;-0.96;75.59;100075.84;2105153;83;33681;-62
2021/11/25 04:03:21;;;;;;;77.22;39.65;;;;;;;-0.98;75.72;100069.30;2137563;81;29383;-61
2021/11/25 04:06:24;;;;;;;74.45;40.43;;;;;;;-0.99;75.73;100068.86;2111931;81;27855;-59
2021/11/25 04:09:26;;;;;;;72.62;38.05;;;;;;;-1.01;75.70;100064.05;2100601;83;28121;-55
2021/11/25 04:12:28;;;;;;;70.00;38.40;;;;;;;-1.02;75.71;100066.70;2103942;81;32288;-51
2021/11/25 04:15:31;;;;;;;69.05;39.80;;;;;;;-1.03;75.73;100062.33;2173579;81;33813;-50
2021/11/25 04:18:33;;;;;;;73.52;40.43;;;;;;;-1.03;75.75;100051.35;2145596;81;30563;-51
2021/11/25 04:21:35;;;;;;;76.42;40.70;;;;;;;-1.03;75.73;100046.09;2123330;82;27736;-48
2021/11/25 04:24:37;;;;;;;77.20;41.33;;;;;;;-1.04;75.75;100036.91;2111349;82;29009;-51
2021/11/25 04:27:39;;;;;;;77.27;40.08;;;;;;;-1.07;75.77;100037.36;2074711;84;30938;-51
2021/11/25 04:37:03;;;;;;;84.40;42.73;;;;;;;-1.12;75.65;100025.99;2143347;83;27809;-62
2021/11/25 04:40:07;;;;;;;76.77;40.00;;;;;;;-1.13;75.60;100026.02;2147850;82;28550;-63
2021/11/25 04:43:09;;;;;;;77.90;39.70;;;;;;;-1.13;75.67;100018.98;2142180;82;31030;-62
2021/11/25 04:46:11;;;;;;;78.87;41.05;;;;;;;-1.13;75.63;100019.44;2128587;81;34223;-64
2021/11/25 04:49:13;;;;;;;74.40;42.83;;;;;;;-1.16;75.89;100012.46;2161158;81;29527;-63
2021/11/25 04:52:15;;;;;;;85.28;43.63;;;;;;;-1.24;75.90;99996.70;2147166;82;27625;-64
2021/11/25 04:55:18;;;;;;;80.90;42.43;;;;;;;-1.27;76.19;99992.81;2181272;81;28470;-62
2021/11/25 04:58:20;;;;;;;80.25;44.08;;;;;;;-1.31;76.09;99985.82;2106464;82;31916;-63
2021/11/25 05:01:22;;;;;;;80.17;42.17;;;;;;;-1.33;76.12;99984.95;2143693;83;34351;-62
2021/11/25 05:04:24;;;;;;;84.67;44.58;;;;;;;-1.35;76.34;99984.55;2147947;82;29766;-62
2021/11/25 05:07:26;;;;;;;87.53;43.73;;;;;;;-1.41;76.37;99977.12;2148140;82;27900;-62
2021/11/25 05:10:28;;;;;;;86.65;45.03;;;;;;;-1.41;76.25;99976.27;2143161;82;29073;-57
2021/11/25 05:13:30;;;;;;;86.53;44.33;;;;;;;-1.41;76.33;99979.75;2139940;82;31312;-62
2021/11/25 05:16:32;;;;;;;86.60;45.35;;;;;;;-1.41;76.35;99975.80;2131414;82;33495;-62
2021/11/25 05:19:33;;;;;;;82.05;44.80;;;;;;;-1.40;76.31;99969.67;2161129;81;29694;-55
2021/11/25 05:22:35;;;;;;;84.62;44.55;;;;;;;-1.40;76.35;99967.05;2080494;85;27599;-58
2021/11/25 05:25:37;;;;;;;88.42;46.50;;;;;;;-1.40;76.38;99960.47;2037543;86;28951;-57
2021/11/25 05:28:39;;;;;;;83.52;45.40;;;;;;;-1.38;76.43;99957.82;2067671;86;32294;-60
2021/11/25 05:31:41;;;;;;;88.65;44.65;;;;;;;-1.40;76.53;99951.28;2069757;84;33042;-63
2021/11/25 05:34:48;;;;;;;76.53;43.25;;;;;;;-1.43;76.43;99954.38;2067949;86;30570;-62
2021/11/25 05:37:49;;;;;;;82.37;42.70;;;;;;;-1.44;76.42;99949.55;2068065;86;27713;-62
2021/11/25 05:40:52;;;;;;;80.83;44.67;;;;;;;-1.46;76.42;99943.42;2068578;86;29019;-60
2021/11/25 05:43:54;;;;;;;87.37;45.85;;;;;;;-1.48;76.60;99943.87;2086276;83;30869;-63
2021/11/25 05:46:55;;;;;;;97.42;45.45;;;;;;;-1.47;76.68;99939.50;2085011;83;32729;-62
2021/11/25 05:49:57;;;;;;;91.28;46.70;;;;;;;-1.47;76.75;99942.13;2092962;83;29331;-61
2021/11/25 05:53:01;;;;;;;87.80;45.52;;;;;;;-1.48;76.72;99933.81;2055243;86;27552;-62
2021/11/25 05:56:03;;;;;;;81.70;45.58;;;;;;;-1.48;76.73;99936.44;2066875;85;28462;-61
2021/11/25 05:59:05;;;;;;;84.97;47.03;;;;;;;-1.49;76.77;99934.70;2096542;84;32239;-58
2021/11/25 06:02:08;;;;;;;91.78;48.33;;;;;;;-1.56;76.79;99928.61;2082957;84;34096;-59
2021/11/25 06:05:12;;;;;;;90.47;47.73;;;;;;;-1.50;76.78;99931.64;2078147;83;29895;-49
2021/11/25 06:08:13;;;;;;;88.95;46.92;;;;;;;-1.52;76.86;99927.72;2096834;84;27638;-64
2021/11/25 06:11:16;;;;;;;96.42;51.13;;;;;;;-1.50;76.96;99932.95;2089404;84;29126;-64
2021/11/25 06:14:18;;;;;;;88.67;47.90;;;;;;;-1.51;77.01;99928.16;2094497;83;32422;-60
2021/11/25 06:17:19;;;;;;;86.28;47.50;;;;;;;-1.49;77.08;99931.64;2091956;84;33068;-64
2021/11/25 06:20:21;;;;;;;88.97;48.87;;;;;;;-1.46;76.99;99926.80;2096786;84;29764;-61
2021/11/25 06:23:24;;;;;;;89.90;47.95;;;;;;;-1.45;76.96;99925.47;2084339;84;27648;-63
2021/11/25 06:26:26;;;;;;;87.27;45.52;;;;;;;-1.46;76.91;99926.34;2083923;84;29702;-62
2021/11/25 06:29:28;;;;;;;84.03;46.18;;;;;;;-1.41;76.83;99927.20;2068511;84;32007;-64
2021/11/25 06:32:30;;;;;;;86.08;45.55;;;;;;;-1.39;76.90;99928.06;2095301;84;34154;-64
2021/11/25 06:35:33;;;;;;;92.67;45.73;;;;;;;-1.36;76.97;99925.84;2096547;84;30790;-62
2021/11/25 06:38:34;;;;;;;85.53;43.58;;;;;;;-1.32;77.10;99931.52;2094806;84;27717;-57
2021/11/25 06:41:37;;;;;;;89.22;46.33;;;;;;;-1.27;77.07;99924.91;2067756;84;29943;-60
2021/11/25 06:44:38;;;;;;;84.87;45.58;;;;;;;-1.24;77.07;99926.20;2086343;83;31050;-51
2021/11/25 06:47:41;;;;;;;81.12;45.75;;;;;;;-1.20;77.01;99917.84;2077468;84;34324;-62
2021/11/25 06:50:43;;;;;;;81.15;46.75;;;;;;;-1.16;76.98;99930.98;2073536;84;29348;-63
2021/11/25 06:53:46;;;;;;;87.00;47.15;;;;;;;-1.12;76.91;99927.42;2087720;84;28227;-61
2021/11/25 06:56:47;;;;;;;78.55;44.18;;;;;;;-1.06;76.83;99933.06;2083230;84;28646;-62
2021/11/25 06:59:49;;;;;;;82.15;45.38;;;;;;;-1.04;76.78;99920.78;2062275;84;32227;-62
2021/11/25 07:02:56;;;;;;;79.58;43.33;;;;;;;-1.00;76.70;99919.88;2087963;84;33508;-60
2021/11/25 07:05:55;;;;;;;81.50;40.12;;;;;;;-0.96;76.69;99923.34;2061763;84;29327;-64
2021/11/25 07:08:56;;;;;;;67.50;34.23;;;;;;;-0.93;76.72;99909.76;2075761;84;28997;-63
2021/11/25 07:11:59;;;;;;;67.00;36.55;;;;;;;-0.85;76.83;99916.26;2096651;84;29271;-59
2021/11/25 07:15:03;;;;;;;66.75;35.95;;;;;;;-0.73;76.86;99913.08;2093118;83;32055;-63
2021/11/25 07:18:05;;;;;;;58.08;28.87;;;;;;;-0.59;76.88;99915.13;2094978;83;32976;-61
2021/11/25 07:21:07;;;;;;;69.97;38.65;;;;;;;-0.44;76.83;99906.63;2084271;83;30513;-60
2021/11/25 07:24:09;;;;;;;66.12;38.95;;;;;;;-0.29;76.79;99904.28;2108534;84;28215;-64
2021/11/25 07:27:11;;;;;;;72.30;40.12;;;;;;;-0.14;76.75;99899.27;2112375;84;29888;-64
2021/11/25 07:30:16;;;;;;;70.32;39.40;;;;;;;0.05;76.60;99907.37;2107889;84;31344;-64
2021/11/25 07:33:18;;;;;;;43.92;25.90;;;;;;;0.26;76.51;99905.34;2080250;84;33087;-63
2021/11/25 07:36:20;;;;;;;55.52;33.63;;;;;;;0.47;76.51;99895.41;2078201;85;29925;-62
2021/11/25 07:39:22;;;;;;;51.53;30.35;;;;;;;0.70;76.55;99886.67;2079548;84;27626;-64
2021/11/25 07:42:24;;;;;;;52.65;30.80;;;;;;;0.96;76.46;99888.47;2083615;82;29860;-60
2021/11/25 07:45:31;;;;;;;47.03;30.72;;;;;;;1.23;76.28;99880.98;2096939;82;32342;-63
2021/11/25 07:48:32;;;;;;;48.08;29.70;;;;;;;1.45;76.10;99886.27;2092030;82;34133;-65
2021/11/25 07:51:34;;;;;;;56.63;32.80;;;;;;;1.60;75.69;99882.48;2100854;84;29248;-64
2021/11/25 07:54:36;;;;;;;51.95;33.05;;;;;;;1.74;75.57;99887.93;2079648;84;27644;-60
2021/11/25 07:57:43;;;;;;;51.83;32.50;;;;;;;1.84;75.42;99877.59;2079410;84;29246;-57
2021/11/25 08:00:42;;;;;;;47.30;29.57;;;;;;;1.96;75.24;99867.22;2076138;85;32307;-58
2021/11/25 08:03:44;;;;;;;45.95;30.10;;;;;;;2.07;74.83;99866.53;2077244;85;33838;-52
2021/11/25 08:06:46;;;;;;;50.20;31.33;;;;;;;2.16;74.87;99866.78;2099347;84;30512;-55
2021/11/25 08:09:48;;;;;;;61.98;35.95;;;;;;;2.25;74.75;99866.59;2102654;83;27869;-52
2021/11/25 08:12:51;;;;;;;57.38;33.88;;;;;;;2.36;74.52;99858.86;2099612;82;29553;-52
2021/11/25 08:15:53;;;;;;;55.10;32.95;;;;;;;2.46;74.37;99855.12;2121871;82;32336;-53
2021/11/25 08:18:55;;;;;;;52.80;31.75;;;;;;;2.54;74.23;99850.50;2097262;82;34201;-58
2021/11/25 08:21:57;;;;;;;52.95;32.08;;;;;;;2.67;74.26;99848.44;2122854;82;29724;-57
2021/11/25 08:25:01;;;;;;;53.25;30.97;;;;;;;2.80;74.14;99850.33;2096607;84;27685;-58
2021/11/25 08:28:03;;;;;;;52.67;31.70;;;;;;;2.93;74.00;99844.26;2096811;84;29555;-52
2021/11/25 08:31:06;;;;;;;50.17;30.68;;;;;;;3.07;73.87;99834.64;2096137;84;32459;-61
2021/11/25 08:34:09;;;;;;;45.75;30.15;;;;;;;3.21;73.80;99830.76;2096805;84;33553;-58
2021/11/25 08:37:11;;;;;;;55.98;31.57;;;;;;;3.33;73.65;99823.80;2096518;84;30503;-54
2021/11/25 08:40:15;;;;;;;49.65;30.52;;;;;;;3.43;73.43;99821.33;2096562;84;27991;-56
2021/11/25 08:43:17;;;;;;;52.38;30.10;;;;;;;3.56;73.18;99819.65;2100951;83;28675;-63
2021/11/25 08:46:20;;;;;;;51.30;30.90;;;;;;;3.63;72.84;99823.41;2085959;85;31879;-62
2021/11/25 08:49:23;;;;;;;51.83;31.48;;;;;;;3.72;72.99;99822.73;2085842;85;33046;-57
2021/11/25 08:52:25;;;;;;;51.77;31.62;;;;;;;3.82;72.68;99821.98;2086023;85;29533;-56
2021/11/25 08:55:32;;;;;;;47.03;30.95;;;;;;;3.90;72.79;99808.91;2065341;84;27723;-56
2021/11/25 08:58:31;;;;;;;54.08;32.60;;;;;;;4.00;72.28;99816.61;2061150;86;28686;-53
2021/11/25 09:01:33;;;;;;;54.30;33.10;;;;;;;4.08;72.13;99810.16;2061449;86;32275;-57
2021/11/25 09:04:35;;;;;;;44.53;27.67;;;;;;;4.18;71.78;99809.86;2061744;86;33805;-53
2021/11/25 09:07:39;;;;;;;62.53;41.80;;;;;;;4.24;71.59;99795.09;2061628;86;30614;-50
2021/11/25 09:10:42;;;;;;;69.77;45.95;;;;;;;4.33;71.63;99799.23;2082338;84;27742;-49
2021/11/25 09:13:45;;;;;;;119.08;72.08;;;;;;;4.41;71.62;99803.37;2117486;83;28688;-51
2021/11/25 09:16:47;;;;;;;90.95;54.90;;;;;;;4.50;71.37;99788.95;2132432;83;31102;-50
2021/11/25 09:19:49;;;;;;;76.75;46.73;;;;;;;4.57;71.21;99793.59;2132475;83;34124;-58
2021/11/25 09:22:51;;;;;;;78.70;45.28;;;;;;;4.61;70.54;99789.05;2082325;83;29705;-59
2021/11/25 09:25:53;;;;;;;103.75;55.67;;;;;;;4.65;70.56;99779.59;2052665;85;27698;-55
2021/11/25 09:29:00;;;;;;;103.25;55.98;;;;;;;4.70;70.43;99775.48;2052043;86;29145;-53
2021/11/25 09:32:02;;;;;;;73.25;43.48;;;;;;;4.75;70.04;99776.65;2052856;86;31081;-55
2021/11/25 09:35:06;;;;;;;98.80;53.58;;;;;;;4.79;70.08;99769.00;2052682;85;33857;-56
2021/11/25 09:38:09;;;;;;;83.15;46.13;;;;;;;4.82;69.62;99757.81;2053016;85;30413;-64
2021/11/25 09:41:12;;;;;;;78.90;42.70;;;;;;;4.86;69.65;99753.25;2094814;83;27701;-62
2021/11/25 09:44:14;;;;;;;71.62;41.88;;;;;;;4.88;69.41;99748.77;2074073;83;28167;-54
2021/11/25 09:47:16;;;;;;;83.17;49.50;;;;;;;4.91;69.06;99745.12;2079382;83;31383;-55
2021/11/25 09:50:21;;;;;;;108.27;58.28;;;;;;;4.95;69.54;99743.66;2065894;86;33288;-52
2021/11/25 09:53:25;;;;;;;74.53;42.25;;;;;;;5.02;69.49;99733.69;2070240;85;29554;-53
2021/11/25 09:56:27;;;;;;;149.80;76.33;;;;;;;5.07;69.20;99727.72;2099507;83;27590;-63
2021/11/25 09:59:29;;;;;;;80.55;46.42;;;;;;;5.12;68.93;99727.11;2076648;85;30094;-64
2021/11/25 10:02:31;;;;;;;85.35;48.52;;;;;;;5.13;68.35;99728.84;2094453;82;31405;-64
2021/11/25 10:05:33;;;;;;;59.73;35.65;;;;;;;5.16;68.44;99724.75;2095732;82;34217;-65
2021/11/25 10:08:45;;;;;;;51.15;33.02;;;;;;;5.18;68.30;99724.68;2113223;82;29984;-64
2021/11/25 10:11:47;;;;;;;65.35;42.20;;;;;;;5.22;68.24;99715.69;2121841;83;27694;-63
2021/11/25 10:14:49;;;;;;;59.77;38.02;;;;;;;5.25;67.92;99707.61;2118637;83;29720;-62
2021/11/25 10:17:53;;;;;;;67.50;43.55;;;;;;;5.24;67.27;99695.70;2119687;83;32248;-58
2021/11/25 10:21:00;;;;;;;52.67;33.13;;;;;;;5.27;67.84;99702.23;2084861;85;33161;-61
2021/11/25 10:24:04;;;;;;;48.33;30.48;;;;;;;5.33;67.82;99700.20;2111012;83;30169;-63
2021/11/25 10:27:25;;;;;;;53.30;34.23;;;;;;;5.37;67.20;99703.64;2118869;84;27624;-53
2021/11/25 10:30:27;;;;;;;48.25;32.70;;;;;;;5.41;67.34;99699.06;2091563;84;29492;-52
2021/11/25 10:33:40;;;;;;;53.33;33.48;;;;;;;5.48;67.28;99692.58;2097591;84;32237;-48
2021/11/25 10:43:23;;;;;;;47.62;30.32;;;;;;;5.80;66.57;99684.28;2095472;84;27735;-56
2021/11/25 10:46:52;;;;;;;43.55;28.87;;;;;;;6.00;66.73;99675.08;2096195;84;28585;-62
2021/11/25 10:50:00;;;;;;;46.83;28.77;;;;;;;6.33;66.02;99677.70;2096755;84;31859;-56
2021/11/25 10:53:07;;;;;;;59.38;36.35;;;;;;;6.60;65.93;99662.84;2096482;84;32516;-59
2021/11/25 10:56:09;;;;;;;39.95;27.45;;;;;;;6.89;66.37;99666.01;2096602;84;29938;-62
2021/11/25 10:59:14;;;;;;;44.48;30.23;;;;;;;7.13;65.61;99659.55;2096934;84;27663;-66
2021/11/25 11:02:29;;;;;;;44.00;32.53;;;;;;;7.32;64.71;99660.52;2096742;83;28724;-59
2021/11/25 11:05:58;;;;;;;48.73;32.35;;;;;;;7.41;63.86;99665.41;2091208;83;31063;-62
2021/11/25 11:09:01;;;;;;;44.48;30.48;;;;;;;7.50;63.84;99669.45;2086045;83;33649;-61
2021/11/25 11:12:31;;;;;;;45.03;29.80;;;;;;;7.58;63.79;99661.96;2086112;85;30351;-65
2021/11/25 11:18:57;;;;;;;58.90;33.45;;;;;;;7.75;63.13;99647.80;2096100;84;28669;-64
2021/11/25 11:21:59;;;;;;;53.10;32.75;;;;;;;7.77;63.31;99642.42;2096188;84;32153;-65
2021/11/25 11:25:06;;;;;;;59.80;34.27;;;;;;;7.75;62.44;99638.47;2106117;83;34031;-58
2021/11/25 11:28:10;;;;;;;49.05;30.82;;;;;;;7.70;62.05;99633.83;2099333;83;31486;-62
2021/11/25 11:31:13;;;;;;;54.25;35.00;;;;;;;7.68;62.04;99628.58;2088813;83;28165;-62
2021/11/25 11:34:17;;;;;;;66.22;41.28;;;;;;;7.71;62.05;99634.22;2103135;82;28709;-69
2021/11/25 11:37:20;;;;;;;101.87;57.75;;;;;;;7.73;62.27;99623.90;2091798;83;31039;-68
2021/11/25 11:40:26;;;;;;;232.20;109.97;;;;;;;7.75;62.41;99618.02;2096607;82;34143;-65
2021/11/25 11:43:28;;;;;;;193.25;100.07;;;;;;;7.79;61.82;99604.52;2110807;82;29373;-66
2021/11/25 11:46:33;;;;;;;156.95;83.55;;;;;;;7.75;61.96;99591.81;2099301;83;27832;-58
2021/11/25 11:49:39;;;;;;;153.45;80.70;;;;;;;7.73;61.62;99585.24;2111412;82;28665;-64
2021/11/25 11:53:00;;;;;;;143.00;74.37;;;;;;;7.74;61.66;99583.42;2106427;83;31947;-67
2021/11/25 11:56:05;;;;;;;92.72;51.13;;;;;;;7.73;61.02;99583.03;2094862;83;32999;-61
2021/11/25 11:59:10;;;;;;;75.90;44.15;;;;;;;7.70;61.17;99568.05;2103649;82;29315;-57
2021/11/25 12:02:12;;;;;;;85.72;49.65;;;;;;;7.72;60.95;99562.18;2096551;82;27762;-55
2021/11/25 12:05:46;;;;;;;125.20;73.72;;;;;;;7.69;60.83;99550.33;2094862;82;29128;-59
2021/11/25 12:08:48;;;;;;;70.00;42.67;;;;;;;7.70;60.85;99558.73;2099594;82;31421;-68
2021/11/25 12:12:14;;;;;;;60.45;36.40;;;;;;;7.69;60.38;99550.81;2096355;83;34163;-67
2021/11/25 12:15:18;;;;;;;62.43;36.45;;;;;;;7.67;60.41;99541.55;2098718;82;44703;-68
2021/11/25 12:18:36;;;;;;;48.80;32.85;;;;;;;7.64;60.68;99537.69;2104561;82;27732;-62
2021/11/25 12:21:50;;;;;;;53.68;35.38;;;;;;;7.66;60.73;99529.64;2077199;82;28722;-64
2021/11/25 12:24:59;;;;;;;93.42;55.00;;;;;;;7.68;60.76;99532.61;2067118;85;31011;-58
2021/11/25 12:28:27;;;;;;;95.62;51.90;;;;;;;7.67;60.36;99530.03;2063485;83;33802;-58
2021/11/25 12:31:41;;;;;;;81.17;47.62;;;;;;;7.62;60.49;99524.91;2124501;83;30661;-57
2021/11/25 12:34:44;;;;;;;76.20;45.58;;;;;;;7.56;60.20;99526.56;2103604;83;27680;-59
2021/11/25 12:37:56;;;;;;;59.50;37.13;;;;;;;7.55;60.83;99513.69;2087919;84;29364;-57
2021/11/25 12:40:59;;;;;;;53.17;32.30;;;;;;;7.56;60.82;99511.42;2063126;84;32750;-57
2021/11/25 12:44:01;;;;;;;48.37;30.60;;;;;;;7.55;60.71;99503.03;2037377;87;32601;-58
2021/11/25 12:47:03;;;;;;;51.77;33.90;;;;;;;7.53;60.41;99498.23;2080787;83;30535;-57
2021/11/25 12:50:19;;;;;;;92.82;53.13;;;;;;;7.52;60.55;99502.33;2141724;83;27520;-60
2021/11/25 12:53:32;;;;;;;72.45;43.73;;;;;;;7.52;60.05;99511.20;2071494;86;28677;-62
2021/11/25 12:56:39;;;;;;;74.03;41.80;;;;;;;7.47;60.09;99501.69;2106488;83;32219;-59
2021/11/25 12:59:41;;;;;;;73.33;45.23;;;;;;;7.37;59.71;99498.61;2107208;83;33097;-60
2021/11/25 13:02:43;;;;;;;58.05;35.13;;;;;;;7.36;60.20;99497.77;2098501;83;30217;-62
2021/11/25 13:05:49;;;;;;;63.20;38.13;;;;;;;7.35;60.06;99494.70;2096976;83;27816;-57
2021/11/25 13:08:53;;;;;;;73.12;42.48;;;;;;;7.36;60.22;99482.26;2090308;83;28635;-63
2021/11/25 13:11:58;;;;;;;65.25;35.15;;;;;;;7.36;60.21;99469.78;2094655;83;31273;-67
2021/11/25 13:15:01;;;;;;;68.62;41.58;;;;;;;7.37;59.78;99459.98;2095910;83;33135;-67
2021/11/25 13:18:04;;;;;;;64.25;39.10;;;;;;;7.38;60.23;99465.25;2075940;84;29705;-63
2021/11/25 13:21:09;;;;;;;64.90;41.18;;;;;;;7.40;60.29;99457.16;2119435;83;27631;-66
2021/11/25 13:24:22;;;;;;;63.58;39.40;;;;;;;7.39;59.83;99445.66;2136061;83;28759;-63
2021/11/25 13:27:24;;;;;;;85.45;53.60;;;;;;;7.34;59.92;99446.83;2112136;83;32322;-60
2021/11/25 13:30:26;;;;;;;223.00;125.18;;;;;;;7.31;59.96;99447.83;2089326;83;34367;-57
2021/11/25 13:33:32;;;;;;;112.85;63.00;;;;;;;7.30;60.00;99458.09;2094582;83;30476;-58
2021/11/25 13:36:41;;;;;;;58.65;36.38;;;;;;;7.31;60.21;99454.48;2103159;83;27777;-66
2021/11/25 13:39:48;;;;;;;51.30;32.53;;;;;;;7.31;60.06;99459.81;2126685;83;28801;-61
2021/11/25 13:42:53;;;;;;;59.40;36.40;;;;;;;7.32;60.31;99463.36;2126657;83;31097;-64
2021/11/25 13:45:56;;;;;;;59.75;36.15;;;;;;;7.30;60.40;99462.97;2116274;83;29798;-62
2021/11/25 13:49:00;;;;;;;59.30;37.70;;;;;;;7.30;60.43;99462.09;2090943;84;30172;-57
2021/11/25 13:52:07;;;;;;;54.27;35.75;;;;;;;7.27;60.14;99474.25;2091151;85;27693;-61
2021/11/25 13:55:15;;;;;;;59.25;37.13;;;;;;;7.25;60.31;99478.30;2091155;85;28668;-65
2021/11/25 13:58:23;;;;;;;63.40;38.58;;;;;;;7.24;60.34;99478.39;2090965;85;31427;-56
2021/11/25 14:01:25;;;;;;;59.90;38.00;;;;;;;7.22;60.33;99471.79;2088972;85;32971;-57
2021/11/25 14:04:30;;;;;;;65.70;39.83;;;;;;;7.20;60.33;99474.99;2081252;83;30618;-57
2021/11/25 14:07:32;;;;;;;;;;;;;;;7.17;60.43;99477.84;2082382;85;27700;-63
2021/11/25 14:10:34;;;;;;;58.33;34.13;;;;;;;7.13;60.17;99484.24;2090190;83;29161;-64
2021/11/25 14:13:36;;;;;;;56.77;34.58;;;;;;;7.10;60.39;99490.59;2126725;83;32349;-58
2021/11/25 14:16:51;;;;;;;55.30;32.93;;;;;;;7.07;60.60;99488.52;2126276;83;34135;-58
2021/11/25 14:19:56;;;;;;;55.08;34.83;;;;;;;7.05;60.58;99487.28;2126476;83;31004;-58
2021/11/25 14:23:03;;;;;;;53.17;35.17;;;;;;;7.03;60.68;99481.64;2121657;83;27677;-58
2021/11/25 14:26:32;;;;;;;55.92;36.25;;;;;;;6.99;60.72;99464.48;2107193;84;30092;-58